Thompsonville, Michigan
Current Conditions -  °F | °C
As of 3:35 PM on Tuesday 25 Nov 2014 (Local Time) from KFKS Reporting Station
Overcast Overcast  
Wind Chill: 21°   Ceiling: 2700
Heat Index: 28°   Visibility: 10mi
Dew Point: 22°   Wind: 7mph
Humidity: 78%   Direction: 300°WNW
Pressure: 30.01"   Gusts: 10mph
Location:  44.52°N, 85.94°W
Report Text: KFKS 252035Z AUTO 30006G09KT 10SM OVC027 M02/M05 A3001 RMK AO2 T10201054
Loading
Personal Weather Stations






























Interactive Weather Map New forecast layout! Learn more

10-Day Weather Forecast

Advertisements
Track Severe Weather on mobile